Metar Aviation Weather Data ENHD

15°C Temp
11°C Dewpoint
% Humidity
Temperature
32 KM/H
20 MPH
17 KTS
340°
North North
West

Wind Speed
Clear
Conditions
Pressure 1023.92 (hPa) - 30.24 (in)
Visibility 6.2 (mi) - 10 (km)

Current Conditions
ENHD
Metar :ENHD 081820Z AUTO 34017KT 9999 NCD 15/11 Q1024
Sat 8th August 20:20 pm

  Metar Aviation API Data Provided by https://www.checkwx.com/ PHP scripts by weather34.com ©2020